createdAt,value
2023-04-12T00:00:39.773Z,9.18
2023-04-12T00:01:39.380Z,9.12
2023-04-12T00:02:39.739Z,9.12
2023-04-12T00:03:40.370Z,9.13
2023-04-12T00:04:40.949Z,9.18
2023-04-12T00:05:40.743Z,9.12
2023-04-12T00:06:40.138Z,9.20
2023-04-12T00:07:40.796Z,8.99
2023-04-12T00:08:40.421Z,9.15
2023-04-12T00:09:40.650Z,9.06
2023-04-12T00:10:40.830Z,9.06
2023-04-12T00:11:42.751Z,9.04
2023-04-12T00:12:41.133Z,9.06
2023-04-12T00:13:41.307Z,9.04
2023-04-12T00:14:41.502Z,9.04
2023-04-12T00:15:41.740Z,9.04
2023-04-12T00:16:41.821Z,8.97
2023-04-12T00:17:42.819Z,8.87
2023-04-12T00:18:42.114Z,8.96
2023-04-12T00:19:42.330Z,9.01
2023-04-12T00:20:43.254Z,8.97
2023-04-12T00:21:43.257Z,9.02
2023-04-12T00:22:43.748Z,9.01
2023-04-12T00:23:42.993Z,8.90
2023-04-12T00:24:43.154Z,9.05
2023-04-12T00:25:43.307Z,9.05
2023-04-12T00:26:43.463Z,8.97
2023-04-12T00:27:43.613Z,9.02
2023-04-12T00:28:43.759Z,9.04
2023-04-12T00:29:43.897Z,8.99
2023-04-12T00:30:44.100Z,9.06
2023-04-12T00:31:44.234Z,9.05
2023-04-12T00:32:44.321Z,9.09
2023-04-12T00:33:45.753Z,9.09
2023-04-12T00:34:45.287Z,9.09
2023-04-12T00:35:44.869Z,9.13
2023-04-12T00:36:45.794Z,9.02
2023-04-12T00:37:45.756Z,9.02
2023-04-12T00:38:45.413Z,9.04
2023-04-12T00:39:47.120Z,9.09
2023-04-12T00:40:45.766Z,9.04
2023-04-12T00:41:46.789Z,9.06
2023-04-12T00:42:46.221Z,9.04
2023-04-12T00:43:46.397Z,9.16
2023-04-12T00:44:46.594Z,9.02
2023-04-12T00:45:47.620Z,9.16
2023-04-12T00:46:48.313Z,9.13
2023-04-12T00:47:47.803Z,9.09
2023-04-12T00:48:47.793Z,9.27
2023-04-12T00:49:48.297Z,9.18
2023-04-12T00:50:47.489Z,9.15
2023-04-12T00:51:48.260Z,9.15
2023-04-12T00:52:48.625Z,9.16
2023-04-12T00:53:48.152Z,9.16
2023-04-12T00:54:49.331Z,9.27
2023-04-12T00:55:49.252Z,9.15
2023-04-12T00:56:48.666Z,9.23
2023-04-12T00:57:48.845Z,9.21
2023-04-12T00:58:49.998Z,9.20
2023-04-12T00:59:50.260Z,9.24
2023-04-12T01:00:50.517Z,9.23
2023-04-12T01:01:49.582Z,9.30
2023-04-12T01:02:49.835Z,9.23
2023-04-12T01:03:49.985Z,9.20
2023-04-12T01:04:50.031Z,9.15
2023-04-12T01:05:50.208Z,9.24
2023-04-12T01:06:50.366Z,9.21
2023-04-12T01:07:51.253Z,9.18
2023-04-12T01:08:51.302Z,9.24
2023-04-12T01:09:50.988Z,9.20
2023-04-12T01:10:51.156Z,9.24
2023-04-12T01:11:53.259Z,9.28
2023-04-12T01:12:51.502Z,9.27
2023-04-12T01:13:53.254Z,9.18
2023-04-12T01:14:51.772Z,9.23
2023-04-12T01:15:52.001Z,9.20
2023-04-12T01:16:52.754Z,9.20
2023-04-12T01:17:52.458Z,9.23
2023-04-12T01:18:52.517Z,9.12
2023-04-12T01:19:53.300Z,9.12
2023-04-12T01:20:53.694Z,9.16
2023-04-12T01:21:52.981Z,9.04
2023-04-12T01:22:53.818Z,9.09
2023-04-12T01:23:53.345Z,9.01
2023-04-12T01:24:53.519Z,9.04
2023-04-12T01:25:54.277Z,8.96
2023-04-12T01:26:54.770Z,8.86
2023-04-12T01:27:54.045Z,8.87
2023-04-12T01:28:54.208Z,8.86
2023-04-12T01:29:54.375Z,8.81
2023-04-12T01:30:56.797Z,8.88
2023-04-12T01:31:54.812Z,8.78
2023-04-12T01:32:54.940Z,8.78
2023-04-12T01:33:55.204Z,8.86
2023-04-12T01:34:55.229Z,8.73
2023-04-12T01:35:56.769Z,8.73
2023-04-12T01:36:56.260Z,8.69
2023-04-12T01:37:55.756Z,8.69
2023-04-12T01:38:55.948Z,8.75
2023-04-12T01:39:56.181Z,8.69
2023-04-12T01:40:56.351Z,8.75
2023-04-12T01:41:56.512Z,8.69
2023-04-12T01:42:56.687Z,8.60
2023-04-12T01:43:57.944Z,8.57
2023-04-12T01:44:57.085Z,8.62
2023-04-12T01:45:57.328Z,8.60
2023-04-12T01:46:58.303Z,8.62
2023-04-12T01:47:57.714Z,8.47
2023-04-12T01:48:58.765Z,8.51
2023-04-12T01:49:58.055Z,8.53
2023-04-12T01:50:58.301Z,8.37
2023-04-12T01:51:59.768Z,8.50
2023-04-12T01:52:59.267Z,8.48
2023-04-12T01:53:59.002Z,8.45
2023-04-12T01:54:59.050Z,8.42
2023-04-12T01:55:59.775Z,8.44
2023-04-12T01:56:59.434Z,8.45
2023-04-12T01:57:59.578Z,8.45
2023-04-12T01:59:00.282Z,8.48
2023-04-12T02:00:01.328Z,8.42
2023-04-12T02:01:00.129Z,8.37
2023-04-12T02:02:00.828Z,8.39
2023-04-12T02:03:00.681Z,8.44
2023-04-12T02:04:01.743Z,8.40
2023-04-12T02:05:00.858Z,8.37
2023-04-12T02:06:01.777Z,8.45
2023-04-12T02:07:01.770Z,8.35
2023-04-12T02:08:01.265Z,8.28
2023-04-12T02:09:01.413Z,8.35
2023-04-12T02:10:01.554Z,8.35
2023-04-12T02:11:02.739Z,8.42
2023-04-12T02:12:02.773Z,8.37
2023-04-12T02:13:02.799Z,8.36
2023-04-12T02:14:02.194Z,8.29
2023-04-12T02:15:02.418Z,8.29
2023-04-12T02:16:04.140Z,8.25
2023-04-12T02:17:02.788Z,8.32
2023-04-12T02:18:02.967Z,8.25
2023-04-12T02:19:04.277Z,8.33
2023-04-12T02:20:03.252Z,8.32
2023-04-12T02:21:04.328Z,8.25
2023-04-12T02:22:03.589Z,8.22
2023-04-12T02:23:04.313Z,8.25
2023-04-12T02:24:04.328Z,8.30
2023-04-12T02:25:04.640Z,8.22
2023-04-12T02:26:04.283Z,8.26
2023-04-12T02:27:05.273Z,8.15
2023-04-12T02:28:04.617Z,8.12
2023-04-12T02:29:04.769Z,8.12
2023-04-12T02:30:05.774Z,8.10
2023-04-12T02:31:05.186Z,8.20
2023-04-12T02:32:05.341Z,8.15
2023-04-12T02:33:05.528Z,8.20
2023-04-12T02:34:05.675Z,8.17
2023-04-12T02:35:05.814Z,8.10
2023-04-12T02:36:06.813Z,8.11
2023-04-12T02:37:06.095Z,8.11
2023-04-12T02:38:07.144Z,8.10
2023-04-12T02:39:06.387Z,8.10
2023-04-12T02:40:06.574Z,8.04
2023-04-12T02:41:06.770Z,8.12
2023-04-12T02:42:06.923Z,8.18
2023-04-12T02:43:07.342Z,8.14
2023-04-12T02:44:07.265Z,8.11
2023-04-12T02:45:07.429Z,8.17
2023-04-12T02:46:08.358Z,8.08
2023-04-12T02:47:07.768Z,8.08
2023-04-12T02:48:09.840Z,8.07
2023-04-12T02:49:08.783Z,8.12
2023-04-12T02:50:08.330Z,8.12
2023-04-12T02:51:08.498Z,8.12
2023-04-12T02:52:09.315Z,8.10
2023-04-12T02:53:08.856Z,8.08
2023-04-12T02:54:09.033Z,8.04
2023-04-12T02:55:09.199Z,8.07
2023-04-12T02:56:09.826Z,7.99
2023-04-12T02:57:10.316Z,7.97
2023-04-12T02:58:09.728Z,8.02
2023-04-12T02:59:09.932Z,7.97
2023-04-12T03:00:10.120Z,8.00
2023-04-12T03:01:11.326Z,7.94
2023-04-12T03:02:10.513Z,8.07
2023-04-12T03:03:11.477Z,7.99
2023-04-12T03:04:12.391Z,8.00
2023-04-12T03:05:11.000Z,8.00
2023-04-12T03:06:11.787Z,7.96
2023-04-12T03:07:11.831Z,8.07
2023-04-12T03:08:11.479Z,8.07
2023-04-12T03:09:11.666Z,8.00
2023-04-12T03:10:11.821Z,8.03
2023-04-12T03:11:12.819Z,7.99
2023-04-12T03:12:12.176Z,8.02
2023-04-12T03:13:12.305Z,8.03
2023-04-12T03:14:13.286Z,7.94
2023-04-12T03:15:13.800Z,7.92
2023-04-12T03:16:13.315Z,7.99
2023-04-12T03:17:12.957Z,7.87
2023-04-12T03:18:14.289Z,7.89
2023-04-12T03:19:13.278Z,7.87
2023-04-12T03:20:14.287Z,7.82
2023-04-12T03:21:13.546Z,7.92
2023-04-12T03:22:13.696Z,7.92
2023-04-12T03:23:13.849Z,7.81
2023-04-12T03:24:14.797Z,7.85
2023-04-12T03:25:15.808Z,7.87
2023-04-12T03:26:14.302Z,7.85
2023-04-12T03:27:15.324Z,7.82
2023-04-12T03:28:14.720Z,7.85
2023-04-12T03:29:15.823Z,7.84
2023-04-12T03:30:15.073Z,7.85
2023-04-12T03:31:15.315Z,7.79
2023-04-12T03:32:17.290Z,7.82
2023-04-12T03:33:15.536Z,7.82
2023-04-12T03:34:15.694Z,7.84
2023-04-12T03:35:15.870Z,7.79
2023-04-12T03:36:16.359Z,7.87
2023-04-12T03:37:16.318Z,7.87
2023-04-12T03:38:17.527Z,7.81
2023-04-12T03:39:17.293Z,7.75
2023-04-12T03:40:19.155Z,7.75
2023-04-12T03:41:17.022Z,7.75
2023-04-12T03:42:31.699Z,7.75
2023-04-12T03:43:20.289Z,7.75
2023-04-12T03:44:18.334Z,7.74
2023-04-12T03:45:17.739Z,7.62
2023-04-12T03:46:17.973Z,7.63
2023-04-12T03:47:18.079Z,7.66
2023-04-12T03:48:18.846Z,7.66
2023-04-12T03:49:18.578Z,7.75
2023-04-12T03:50:20.290Z,7.69
2023-04-12T03:51:18.777Z,7.69
2023-04-12T03:52:18.935Z,7.72
2023-04-12T03:53:19.080Z,7.74
2023-04-12T03:54:19.281Z,7.63
2023-04-12T03:55:19.430Z,7.75
2023-04-12T03:56:19.585Z,7.69
2023-04-12T03:57:19.729Z,7.69
2023-04-12T03:58:20.830Z,7.74
2023-04-12T03:59:20.097Z,7.72
2023-04-12T04:00:20.254Z,7.66
2023-04-12T04:01:20.412Z,7.69
2023-04-12T04:02:22.418Z,7.74
2023-04-12T04:03:20.755Z,7.81
2023-04-12T04:04:21.148Z,7.75
2023-04-12T04:05:21.801Z,7.69
2023-04-12T04:06:21.801Z,7.75
2023-04-12T04:07:21.440Z,7.67
2023-04-12T04:08:22.305Z,7.72
2023-04-12T04:09:21.830Z,7.74
2023-04-12T04:10:21.985Z,7.74
2023-04-12T04:11:22.145Z,7.78
2023-04-12T04:12:22.961Z,7.71
2023-04-12T04:13:23.512Z,7.74
2023-04-12T04:14:23.302Z,7.81
2023-04-12T04:15:22.811Z,7.69
2023-04-12T04:16:23.949Z,7.74
2023-04-12T04:17:23.257Z,7.79
2023-04-12T04:18:23.365Z,7.77
2023-04-12T04:19:24.805Z,7.72
2023-04-12T04:20:25.432Z,7.72
2023-04-12T04:21:24.364Z,7.71
2023-04-12T04:22:23.990Z,7.81
2023-04-12T04:23:24.166Z,7.75
2023-04-12T04:24:24.315Z,7.77
2023-04-12T04:25:24.475Z,7.77
2023-04-12T04:26:24.709Z,7.62
2023-04-12T04:27:24.902Z,7.71
2023-04-12T04:28:25.838Z,7.75
2023-04-12T04:29:25.207Z,7.67
2023-04-12T04:30:25.355Z,7.77
2023-04-12T04:31:25.500Z,7.75
2023-04-12T04:32:25.761Z,7.74
2023-04-12T04:33:25.790Z,7.75
2023-04-12T04:34:26.816Z,7.74
2023-04-12T04:35:27.821Z,7.74
2023-04-12T04:36:27.305Z,7.75
2023-04-12T04:37:27.318Z,7.77
2023-04-12T04:38:26.578Z,7.74
2023-04-12T04:39:27.475Z,7.69
2023-04-12T04:40:27.859Z,7.72
2023-04-12T04:41:27.804Z,7.79
2023-04-12T04:42:27.316Z,7.62
2023-04-12T04:43:27.462Z,7.69
2023-04-12T04:44:28.355Z,7.58
2023-04-12T04:45:27.847Z,7.69
2023-04-12T04:46:27.910Z,7.67
2023-04-12T04:47:28.093Z,7.72
2023-04-12T04:48:28.184Z,7.79
2023-04-12T04:49:28.337Z,7.74
2023-04-12T04:50:30.324Z,7.77
2023-04-12T04:51:29.316Z,7.78
2023-04-12T04:52:28.932Z,7.75
2023-04-12T04:53:29.088Z,7.75
2023-04-12T04:54:29.848Z,7.77
2023-04-12T04:55:29.866Z,7.75
2023-04-12T04:56:29.603Z,7.75
2023-04-12T04:57:29.741Z,7.82
2023-04-12T04:58:29.891Z,7.69
2023-04-12T04:59:30.036Z,7.78
2023-04-12T05:00:30.187Z,7.82
2023-04-12T05:01:30.339Z,7.96
2023-04-12T05:02:31.447Z,7.82
2023-04-12T05:03:31.127Z,7.81
2023-04-12T05:04:31.363Z,7.89
2023-04-12T05:05:32.038Z,7.81
2023-04-12T05:06:31.818Z,7.99
2023-04-12T05:07:31.448Z,7.85
2023-04-12T05:08:31.605Z,7.85
2023-04-12T05:09:31.768Z,7.84
2023-04-12T05:10:31.893Z,7.87
2023-04-12T05:11:32.028Z,7.82
2023-04-12T05:12:32.173Z,7.89
2023-04-12T05:13:32.383Z,7.99
2023-04-12T05:14:44.453Z,7.90
2023-04-12T05:15:34.785Z,7.93
2023-04-12T05:16:32.959Z,7.92
2023-04-12T05:17:33.058Z,7.93
2023-04-12T05:18:33.250Z,7.92
2023-04-12T05:19:33.431Z,8.03
2023-04-12T05:20:33.612Z,7.96
2023-04-12T05:21:33.824Z,8.15
2023-04-12T05:22:35.316Z,8.07
2023-04-12T05:23:34.853Z,8.00
2023-04-12T05:24:34.398Z,7.92
2023-04-12T05:25:34.603Z,8.03
2023-04-12T05:26:34.754Z,7.90
2023-04-12T05:27:35.822Z,8.00
2023-04-12T05:28:35.115Z,8.08
2023-04-12T05:29:35.327Z,8.03
2023-04-12T05:30:36.400Z,7.94
2023-04-12T05:31:36.309Z,7.97
2023-04-12T05:32:35.848Z,7.94
2023-04-12T05:33:36.037Z,7.92
2023-04-12T05:34:36.238Z,8.00
2023-04-12T05:35:36.413Z,7.87
2023-04-12T05:36:36.646Z,7.89
2023-04-12T05:37:36.819Z,7.97
2023-04-12T05:38:36.959Z,7.96
2023-04-12T05:39:37.125Z,7.97
2023-04-12T05:40:37.296Z,7.92
2023-04-12T05:41:39.316Z,7.96
2023-04-12T05:42:37.693Z,7.92
2023-04-12T05:43:38.981Z,7.94
2023-04-12T05:44:38.120Z,7.94
2023-04-12T05:45:38.277Z,7.90
2023-04-12T05:46:38.612Z,7.93
2023-04-12T05:47:39.412Z,8.08
2023-04-12T05:48:38.726Z,7.94
2023-04-12T05:49:38.909Z,7.90
2023-04-12T05:50:40.321Z,7.87
2023-04-12T05:51:41.665Z,7.93
2023-04-12T05:52:40.398Z,7.92
2023-04-12T05:53:39.567Z,7.97
2023-04-12T05:54:39.734Z,7.94
2023-04-12T05:55:39.893Z,7.97
2023-04-12T05:56:40.059Z,7.99
2023-04-12T05:57:40.230Z,8.00
2023-04-12T05:58:40.423Z,7.97
2023-04-12T05:59:40.688Z,7.99
2023-04-12T06:00:41.362Z,7.79
2023-04-12T06:01:40.931Z,7.89
2023-04-12T06:02:41.224Z,7.78
2023-04-12T06:03:41.336Z,7.74
2023-04-12T06:04:49.993Z,7.75
2023-04-12T06:05:43.544Z,7.71
2023-04-12T06:06:41.690Z,7.72
2023-04-12T06:07:42.870Z,7.71
2023-04-12T06:08:43.329Z,7.77
2023-04-12T06:09:42.274Z,7.75
2023-04-12T06:10:42.470Z,7.62
2023-04-12T06:11:42.658Z,7.60
2023-04-12T06:12:42.876Z,7.72
2023-04-12T06:13:42.952Z,7.59
2023-04-12T06:14:43.832Z,7.71
2023-04-12T06:15:43.902Z,7.56
2023-04-12T06:16:43.497Z,7.55
2023-04-12T06:17:43.779Z,7.59
2023-04-12T06:18:43.896Z,7.59
2023-04-12T06:19:44.082Z,7.63
2023-04-12T06:20:44.278Z,7.59
2023-04-12T06:21:44.445Z,7.62
2023-04-12T06:22:44.647Z,7.59
2023-04-12T06:23:45.329Z,7.62
2023-04-12T06:24:44.979Z,7.56
2023-04-12T06:25:47.336Z,7.59
2023-04-12T06:26:45.336Z,7.66
2023-04-12T06:27:45.567Z,7.72
2023-04-12T06:28:45.768Z,7.56
2023-04-12T06:29:46.015Z,7.59
2023-04-12T06:30:46.211Z,7.71
2023-04-12T06:31:46.454Z,7.52
2023-04-12T06:32:46.600Z,7.62
2023-04-12T06:33:46.721Z,7.71
2023-04-12T06:34:46.900Z,7.72
2023-04-12T06:35:47.204Z,7.62
2023-04-12T06:36:47.252Z,7.69
2023-04-12T06:37:49.330Z,7.69
2023-04-12T06:38:48.836Z,7.69
2023-04-12T06:39:47.863Z,7.59
2023-04-12T06:40:48.045Z,7.66
2023-04-12T06:41:48.837Z,7.56
2023-04-12T06:42:48.380Z,7.59
2023-04-12T06:43:48.648Z,7.69
2023-04-12T06:44:50.831Z,7.60
2023-04-12T06:45:48.993Z,7.66
2023-04-12T06:46:49.196Z,7.55
2023-04-12T06:47:49.359Z,7.56
2023-04-12T06:48:49.549Z,7.56
2023-04-12T06:49:50.757Z,7.55
2023-04-12T06:50:49.938Z,7.63
2023-04-12T06:51:50.161Z,7.59
2023-04-12T06:52:51.337Z,7.58
2023-04-12T06:53:50.475Z,7.74
2023-04-12T06:54:50.712Z,7.56
2023-04-12T06:55:50.904Z,7.59
2023-04-12T06:56:51.142Z,7.56
2023-04-12T06:57:51.225Z,7.56
2023-04-12T06:58:53.340Z,7.72
2023-04-12T06:59:51.598Z,7.59
2023-04-12T07:00:51.828Z,7.59
2023-04-12T07:01:52.084Z,7.67
2023-04-12T07:02:52.936Z,7.56
2023-04-12T07:03:53.402Z,7.62
2023-04-12T07:04:53.343Z,7.69
2023-04-12T07:05:52.733Z,7.79
2023-04-12T07:06:52.894Z,7.74
2023-04-12T07:07:53.034Z,7.58
2023-04-12T07:08:53.934Z,7.74
2023-04-12T07:09:53.392Z,7.77
2023-04-12T07:10:53.543Z,7.74
2023-04-12T07:11:53.701Z,7.81
2023-04-12T07:12:53.885Z,7.79
2023-04-12T07:13:54.037Z,7.75
2023-04-12T07:14:54.842Z,7.78
2023-04-12T07:15:54.673Z,7.74
2023-04-12T07:16:54.751Z,7.82
2023-04-12T07:17:54.848Z,7.78
2023-04-12T07:18:55.145Z,7.77
2023-04-12T07:19:56.336Z,7.81
2023-04-12T07:20:56.205Z,7.79
2023-04-12T07:21:55.565Z,7.84
2023-04-12T07:22:55.697Z,7.84
2023-04-12T07:23:56.012Z,7.81
2023-04-12T07:24:56.000Z,7.85
2023-04-12T07:25:56.156Z,7.94
2023-04-12T07:26:57.336Z,7.89
2023-04-12T07:27:57.374Z,7.92
2023-04-12T07:28:56.904Z,7.99
2023-04-12T07:29:56.873Z,7.92
2023-04-12T07:30:57.047Z,7.90
2023-04-12T07:31:57.212Z,7.97
2023-04-12T07:33:08.385Z,8.03
2023-04-12T07:33:59.705Z,8.11
2023-04-12T07:34:59.840Z,8.04
2023-04-12T07:35:57.968Z,8.02
2023-04-12T07:36:58.840Z,8.08
2023-04-12T07:37:58.369Z,8.18
2023-04-12T07:39:00.883Z,8.15
2023-04-12T07:39:58.816Z,8.12
2023-04-12T07:40:59.894Z,8.32
2023-04-12T07:41:59.063Z,8.18
2023-04-12T07:42:59.294Z,8.22
2023-04-12T07:44:00.356Z,8.28
2023-04-12T07:44:59.644Z,8.28
2023-04-12T07:45:59.848Z,8.20
2023-04-12T07:47:00.126Z,8.21
2023-04-12T07:48:00.219Z,8.37
2023-04-12T07:49:00.400Z,8.26
2023-04-12T07:50:00.610Z,8.44
2023-04-12T07:51:00.786Z,8.47
2023-04-12T07:52:01.857Z,8.37
2023-04-12T07:53:01.849Z,8.55
2023-04-12T07:54:01.892Z,8.45
2023-04-12T07:55:01.922Z,8.51
2023-04-12T07:56:01.701Z,8.54
2023-04-12T07:57:01.934Z,8.60
2023-04-12T07:58:02.846Z,8.69
2023-04-12T07:59:02.277Z,8.73
2023-04-12T08:00:02.515Z,8.65
2023-04-12T08:01:02.596Z,8.65
2023-04-12T08:02:03.029Z,8.54
2023-04-12T08:03:03.158Z,8.55
2023-04-12T08:04:04.626Z,8.65
2023-04-12T08:05:03.415Z,8.68
2023-04-12T08:06:03.667Z,8.71
2023-04-12T08:07:04.350Z,8.68
2023-04-12T08:08:03.897Z,8.71
2023-04-12T08:09:04.108Z,8.79
2023-04-12T08:10:04.279Z,8.76
2023-04-12T08:11:05.396Z,8.83
2023-04-12T08:12:04.637Z,8.81
2023-04-12T08:13:04.795Z,8.62
2023-04-12T08:14:05.026Z,8.73
2023-04-12T08:15:05.863Z,8.81
2023-04-12T08:16:05.478Z,8.83
2023-04-12T08:17:07.220Z,8.73
2023-04-12T08:18:05.769Z,8.81
2023-04-12T08:19:05.859Z,8.86
2023-04-12T08:20:06.895Z,8.87
2023-04-12T08:21:06.150Z,8.86
2023-04-12T08:22:06.303Z,8.88
2023-04-12T08:23:07.446Z,8.88
2023-04-12T08:24:07.360Z,9.16
2023-04-12T08:25:06.748Z,9.27
2023-04-12T08:26:22.901Z,9.23
2023-04-12T08:27:07.851Z,9.38
2023-04-12T08:28:08.860Z,9.30
2023-04-12T08:29:08.370Z,9.30
2023-04-12T08:30:08.409Z,9.24
2023-04-12T08:31:08.412Z,9.39
2023-04-12T08:32:09.905Z,9.70
2023-04-12T08:33:08.911Z,9.97
2023-04-12T08:34:08.291Z,9.94
2023-04-12T08:35:09.396Z,10.06
2023-04-12T08:36:08.701Z,10.21
2023-04-12T08:37:08.796Z,10.12
2023-04-12T08:38:08.939Z,10.43
2023-04-12T08:39:09.116Z,10.47
2023-04-12T08:40:09.333Z,10.52
2023-04-12T08:41:09.448Z,10.47
2023-04-12T08:42:10.357Z,10.47
2023-04-12T08:43:10.991Z,10.18
2023-04-12T08:44:10.027Z,10.24
2023-04-12T08:45:11.358Z,10.21
2023-04-12T08:46:10.357Z,10.21
2023-04-12T08:47:13.439Z,10.22
2023-04-12T08:48:10.667Z,10.26
2023-04-12T08:49:10.849Z,10.12
2023-04-12T08:50:11.059Z,9.93
2023-04-12T08:51:12.365Z,9.94
2023-04-12T08:52:11.897Z,9.93
2023-04-12T08:53:11.545Z,9.70
2023-04-12T08:54:13.864Z,9.68
2023-04-12T08:55:11.869Z,9.70
2023-04-12T08:56:12.028Z,9.67
2023-04-12T08:57:12.229Z,9.50
2023-04-12T08:58:12.391Z,9.53
2023-04-12T08:59:12.558Z,9.46
2023-04-12T09:00:12.707Z,9.46
2023-04-12T09:01:12.858Z,9.56
2023-04-12T09:02:13.117Z,9.50
2023-04-12T09:03:13.563Z,9.46
2023-04-12T09:04:13.527Z,9.57
2023-04-12T09:05:13.706Z,9.42
2023-04-12T09:06:13.865Z,9.38
2023-04-12T09:07:14.874Z,9.35
2023-04-12T09:08:14.220Z,9.48
2023-04-12T09:09:14.866Z,9.43
2023-04-12T09:10:14.495Z,9.49
2023-04-12T09:11:14.662Z,9.49
2023-04-12T09:12:14.940Z,9.50
2023-04-12T09:13:14.979Z,9.52
2023-04-12T09:14:15.123Z,9.60
2023-04-12T09:15:15.320Z,9.68
2023-04-12T09:16:15.458Z,9.61
2023-04-12T09:17:15.656Z,9.66
2023-04-12T09:18:17.399Z,9.81
2023-04-12T09:19:17.108Z,9.75
2023-04-12T09:20:16.122Z,9.82
2023-04-12T09:21:50.340Z,9.76
2023-04-12T09:22:16.965Z,9.78
2023-04-12T09:23:16.584Z,9.79
2023-04-12T09:24:16.736Z,9.97
2023-04-12T09:25:18.921Z,9.83
2023-04-12T09:26:17.913Z,9.88
2023-04-12T09:27:17.272Z,9.94
2023-04-12T09:28:17.432Z,9.83
2023-04-12T09:29:17.621Z,9.85
2023-04-12T09:30:17.843Z,10.01
2023-04-12T09:31:18.969Z,10.07
2023-04-12T09:32:18.960Z,9.96
2023-04-12T09:33:18.363Z,10.07
2023-04-12T09:34:18.568Z,10.01
2023-04-12T09:35:18.840Z,10.17
2023-04-12T09:36:18.833Z,10.15
2023-04-12T09:37:18.959Z,10.14
2023-04-12T09:38:19.134Z,9.99
2023-04-12T09:39:19.310Z,10.01
2023-04-12T09:40:20.425Z,9.93
2023-04-12T09:41:21.520Z,10.04
2023-04-12T09:42:33.316Z,9.94
2023-04-12T09:43:22.170Z,9.91
2023-04-12T09:44:20.313Z,9.93
2023-04-12T09:45:20.521Z,9.93
2023-04-12T09:46:21.466Z,10.07
2023-04-12T09:47:21.003Z,10.15
2023-04-12T09:48:21.916Z,10.12
2023-04-12T09:49:21.330Z,10.07
2023-04-12T09:50:22.469Z,9.91
2023-04-12T09:51:21.753Z,9.99
2023-04-12T09:52:43.856Z,9.89
2023-04-12T09:53:23.882Z,9.94
2023-04-12T09:54:22.258Z,9.97
2023-04-12T09:55:23.001Z,10.04
2023-04-12T09:56:22.590Z,10.06
2023-04-12T09:57:22.777Z,10.15
2023-04-12T09:58:23.946Z,10.09
2023-04-12T09:59:24.045Z,10.10
2023-04-12T10:00:24.011Z,10.09
2023-04-12T10:01:24.956Z,10.18
2023-04-12T10:02:25.076Z,10.12
2023-04-12T10:03:24.054Z,10.22
2023-04-12T10:04:24.383Z,10.32
2023-04-12T10:05:25.172Z,10.46
2023-04-12T10:06:25.436Z,10.37
2023-04-12T10:07:25.589Z,10.26
2023-04-12T10:08:24.877Z,10.39
2023-04-12T10:09:25.063Z,10.33
2023-04-12T10:10:25.233Z,10.52
2023-04-12T10:11:25.464Z,10.56
2023-04-12T10:12:25.531Z,10.66
2023-04-12T10:13:25.722Z,10.70
2023-04-12T10:14:27.420Z,10.86
2023-04-12T10:15:26.950Z,10.68
2023-04-12T10:16:26.375Z,10.76
2023-04-12T10:17:26.525Z,10.92
2023-04-12T10:18:27.284Z,11.01
2023-04-12T10:19:26.820Z,10.98
2023-04-12T10:20:29.598Z,10.94
2023-04-12T10:21:28.187Z,10.95
2023-04-12T10:22:27.350Z,10.95
2023-04-12T10:23:28.454Z,10.96
2023-04-12T10:24:27.745Z,10.99
2023-04-12T10:25:27.918Z,10.98
2023-04-12T10:26:28.082Z,10.83
2023-04-12T10:27:28.935Z,10.76
2023-04-12T10:28:28.442Z,10.71
2023-04-12T10:29:29.490Z,10.55
2023-04-12T10:30:29.544Z,10.59
2023-04-12T10:31:29.024Z,10.63
2023-04-12T10:32:29.122Z,10.76
2023-04-12T10:33:30.050Z,10.76
2023-04-12T10:34:29.413Z,10.74
2023-04-12T10:35:30.160Z,10.81
2023-04-12T10:36:31.473Z,10.89
2023-04-12T10:37:29.893Z,11.01
2023-04-12T10:38:32.440Z,11.14
2023-04-12T10:39:30.956Z,11.32
2023-04-12T10:40:30.340Z,11.34
2023-04-12T10:41:30.568Z,11.32
2023-04-12T10:42:30.760Z,11.32
2023-04-12T10:43:30.964Z,11.29
2023-04-12T10:44:31.151Z,11.44
2023-04-12T10:45:31.335Z,11.50
2023-04-12T10:46:31.510Z,11.57
2023-04-12T10:47:32.535Z,11.71
2023-04-12T10:48:31.933Z,11.67
2023-04-12T10:49:32.020Z,11.77
2023-04-12T10:50:32.813Z,12.05
2023-04-12T10:51:32.345Z,12.31
2023-04-12T10:52:32.478Z,12.48
2023-04-12T10:53:35.798Z,12.48
2023-04-12T10:54:33.481Z,12.49
2023-04-12T10:55:33.994Z,12.44
2023-04-12T10:56:33.342Z,12.24
2023-04-12T10:57:34.392Z,12.24
2023-04-12T10:58:33.553Z,12.06
2023-04-12T10:59:46.944Z,12.06
2023-04-12T11:00:35.998Z,12.08
2023-04-12T11:01:36.708Z,12.21
2023-04-12T11:02:34.465Z,12.29
2023-04-12T11:03:36.056Z,12.38
2023-04-12T11:04:34.674Z,12.21
2023-04-12T11:05:34.743Z,12.19
2023-04-12T11:06:35.302Z,11.99
2023-04-12T11:07:35.484Z,11.71
2023-04-12T11:08:35.138Z,11.64
2023-04-12T11:09:35.976Z,11.68
2023-04-12T11:10:35.541Z,11.72
2023-04-12T11:11:35.693Z,11.62
2023-04-12T11:12:35.896Z,11.53
2023-04-12T11:13:36.070Z,11.53
2023-04-12T11:14:36.283Z,11.61
2023-04-12T11:15:36.453Z,11.57
2023-04-12T11:16:36.650Z,11.77
2023-04-12T11:17:37.929Z,11.78
2023-04-12T11:18:38.072Z,11.93
2023-04-12T11:19:38.455Z,11.77
2023-04-12T11:20:37.374Z,11.67
2023-04-12T11:21:38.495Z,11.75
2023-04-12T11:22:37.820Z,11.93
2023-04-12T11:23:37.992Z,12.02
2023-04-12T11:24:38.186Z,12.12
2023-04-12T11:25:38.360Z,12.23
2023-04-12T11:26:40.440Z,12.31
2023-04-12T11:27:39.441Z,12.23
2023-04-12T11:28:38.836Z,12.15
2023-04-12T11:29:40.447Z,12.08
2023-04-12T11:30:40.943Z,12.08
2023-04-12T11:31:39.620Z,12.06
2023-04-12T11:32:40.484Z,12.02
2023-04-12T11:33:39.770Z,11.85
2023-04-12T11:34:39.943Z,11.82
2023-04-12T11:35:40.135Z,11.77
2023-04-12T11:36:40.983Z,11.70
2023-04-12T11:37:40.993Z,11.70
2023-04-12T11:38:40.686Z,11.68
2023-04-12T11:39:40.764Z,11.70
2023-04-12T11:40:40.899Z,11.47
2023-04-12T11:41:41.068Z,11.32
2023-04-12T11:42:41.261Z,11.25
2023-04-12T11:43:41.947Z,11.38
2023-04-12T11:44:56.122Z,11.29
2023-04-12T11:45:43.784Z,11.49
2023-04-12T11:46:42.443Z,11.49
2023-04-12T11:47:42.964Z,11.50
2023-04-12T11:48:42.239Z,11.53
2023-04-12T11:49:42.943Z,11.47
2023-04-12T11:50:43.945Z,11.61
2023-04-12T11:51:42.829Z,11.83
2023-04-12T11:52:43.002Z,12.02
2023-04-12T11:53:44.942Z,12.11
2023-04-12T11:54:44.444Z,12.21
2023-04-12T11:55:43.465Z,12.15
2023-04-12T11:56:43.644Z,12.16
2023-04-12T11:57:43.833Z,12.31
2023-04-12T11:58:44.947Z,12.60
2023-04-12T11:59:44.253Z,12.63
2023-04-12T12:00:44.394Z,12.69
2023-04-12T12:01:45.555Z,12.54
2023-04-12T12:02:56.050Z,12.71
2023-04-12T12:03:47.654Z,12.56
2023-04-12T12:04:46.082Z,12.41
2023-04-12T12:05:46.405Z,12.20
2023-04-12T12:06:46.702Z,12.05
2023-04-12T12:07:45.471Z,11.96
2023-04-12T12:08:45.656Z,11.75
2023-04-12T12:09:46.454Z,11.72
2023-04-12T12:11:04.010Z,11.62
2023-04-12T12:11:48.101Z,11.77
2023-04-12T12:12:47.051Z,11.61
2023-04-12T12:13:47.510Z,11.62
2023-04-12T12:14:46.809Z,11.64
2023-04-12T12:15:47.050Z,11.59
2023-04-12T12:16:47.133Z,11.49
2023-04-12T12:17:48.003Z,11.44
2023-04-12T12:18:47.908Z,11.49
2023-04-12T12:19:49.458Z,11.47
2023-04-12T12:20:47.861Z,11.39
2023-04-12T12:21:48.069Z,11.35
2023-04-12T12:22:49.953Z,11.36
2023-04-12T12:23:48.968Z,11.25
2023-04-12T12:24:48.630Z,11.38
2023-04-12T12:25:48.823Z,11.20
2023-04-12T12:26:50.455Z,11.28
2023-04-12T12:27:50.526Z,11.19
2023-04-12T12:28:49.985Z,11.32
2023-04-12T12:29:50.456Z,11.43
2023-04-12T12:30:49.867Z,11.46
2023-04-12T12:31:51.097Z,11.47
2023-04-12T12:32:50.292Z,11.53
2023-04-12T12:33:51.465Z,11.65
2023-04-12T12:34:51.332Z,11.53
2023-04-12T12:35:51.452Z,11.52
2023-04-12T12:36:51.973Z,11.53
2023-04-12T12:37:51.131Z,11.31
2023-04-12T12:38:51.539Z,11.14
2023-04-12T12:39:52.502Z,11.03
2023-04-12T12:40:51.650Z,10.88
2023-04-12T12:41:52.011Z,10.91
2023-04-12T12:42:52.084Z,10.96
2023-04-12T12:43:52.310Z,11.10
2023-04-12T12:44:52.508Z,11.16
2023-04-12T12:45:52.741Z,11.24
2023-04-12T12:46:58.693Z,11.25
2023-04-12T12:47:55.135Z,11.21
2023-04-12T12:48:54.025Z,11.27
2023-04-12T12:49:53.427Z,11.24
2023-04-12T12:50:54.021Z,11.28
2023-04-12T12:51:53.679Z,11.27
2023-04-12T12:52:55.976Z,11.31
2023-04-12T12:53:54.092Z,11.20
2023-04-12T12:54:54.260Z,11.31
2023-04-12T12:55:55.471Z,11.31
2023-04-12T12:56:55.473Z,11.27
2023-04-12T12:58:07.365Z,11.28
2023-04-12T12:58:57.683Z,11.28
2023-04-12T12:59:55.100Z,11.38
2023-04-12T13:00:55.975Z,11.41
2023-04-12T13:01:55.594Z,11.49
2023-04-12T13:02:56.052Z,11.57
2023-04-12T13:03:56.096Z,11.70
2023-04-12T13:04:56.126Z,11.71
2023-04-12T13:05:56.155Z,11.61
2023-04-12T13:06:56.537Z,11.54
2023-04-12T13:07:56.476Z,11.36
2023-04-12T13:08:56.891Z,11.31
2023-04-12T13:09:57.519Z,11.16
2023-04-12T13:10:57.038Z,11.19
2023-04-12T13:11:57.248Z,11.14
2023-04-12T13:12:58.032Z,11.14